SBI1002 ULLI-UUDD
Flight info
| Callsign | SBI1002 |
|---|---|
| Flight time | N/A |
| Altitude | 33000 |
| Route | SUGIN1A SUGIN T873 NIRGI T73 DESUD P164 IBOGI/K0817F290 T287 ESOLO ESOLO3L |
| Aircraft | A320/M-SDE3FGHIRWY/LB1 |
Departure
| Time | 2026-05-04 16:09 |
|---|---|
| Airport | Pulkovo Airport (ULLI) |
Arrival
| Time | N/A |
|---|---|
| Airport | Domodedovo International Airport (UUDD) |
| Time | Latitude | Longitude | Altitude | Speed | Heading |
|---|---|---|---|---|---|
| 2026-05-04 15:39 | 59.79821 | 30.26662 | 81 ft | 0 kts | 106° |
| 2026-05-04 15:49 | 59.79821 | 30.26661 | 81 ft | 0 kts | 106° |
| 2026-05-04 15:55 | 59.79821 | 30.26660 | 81 ft | 2 kts | 106° |
| 2026-05-04 15:55 | 59.79826 | 30.26629 | 85 ft | 2 kts | 106° |
| 2026-05-04 15:56 | 59.79830 | 30.26597 | 85 ft | 2 kts | 104° |
| 2026-05-04 15:56 | 59.79834 | 30.26566 | 84 ft | 2 kts | 95° |
| 2026-05-04 15:56 | 59.79831 | 30.26537 | 84 ft | 1 kts | 7° |
| 2026-05-04 15:56 | 59.79828 | 30.26538 | 86 ft | 0 kts | 20° |
| 2026-05-04 15:59 | 59.79858 | 30.26554 | 81 ft | 6 kts | 15° |
| 2026-05-04 15:59 | 59.79897 | 30.26576 | 81 ft | 6 kts | 16° |
| 2026-05-04 16:00 | 59.79932 | 30.26597 | 84 ft | 5 kts | 17° |
| 2026-05-04 16:00 | 59.79990 | 30.26632 | 72 ft | 10 kts | 17° |
| 2026-05-04 16:00 | 59.80052 | 30.26669 | 78 ft | 9 kts | 16° |
| 2026-05-04 16:00 | 59.80112 | 30.26704 | 68 ft | 9 kts | 16° |
| 2026-05-04 16:01 | 59.80168 | 30.26736 | 76 ft | 8 kts | 17° |
| 2026-05-04 16:01 | 59.80220 | 30.26767 | 74 ft | 7 kts | 17° |
| 2026-05-04 16:01 | 59.80268 | 30.26795 | 76 ft | 7 kts | 16° |
| 2026-05-04 16:01 | 59.80311 | 30.26820 | 75 ft | 6 kts | 16° |
| 2026-05-04 16:02 | 59.80348 | 30.26842 | 73 ft | 6 kts | 17° |
| 2026-05-04 16:02 | 59.80390 | 30.26895 | 72 ft | 6 kts | 72° |
| 2026-05-04 16:02 | 59.80356 | 30.27151 | 73 ft | 18 kts | 107° |
| 2026-05-04 16:03 | 59.80319 | 30.27400 | 69 ft | 19 kts | 107° |
| 2026-05-04 16:03 | 59.80277 | 30.27678 | 71 ft | 22 kts | 106° |
| 2026-05-04 16:03 | 59.80232 | 30.27982 | 75 ft | 24 kts | 106° |
| 2026-05-04 16:03 | 59.80184 | 30.28303 | 72 ft | 25 kts | 106° |
| 2026-05-04 16:04 | 59.80134 | 30.28637 | 75 ft | 26 kts | 107° |
| 2026-05-04 16:04 | 59.80040 | 30.29251 | 68 ft | 21 kts | 123° |
| 2026-05-04 16:04 | 59.80029 | 30.29266 | 64 ft | 0 kts | 154° |
| 2026-05-04 16:05 | 59.80028 | 30.29274 | 64 ft | 0 kts | 124° |
| 2026-05-04 16:05 | 59.80018 | 30.29417 | 71 ft | 11 kts | 107° |
| 2026-05-04 16:06 | 59.79973 | 30.29712 | 71 ft | 26 kts | 106° |
| 2026-05-04 16:06 | 59.80017 | 30.30185 | 67 ft | 10 kts | 46° |
| 2026-05-04 16:07 | 59.80087 | 30.30268 | 71 ft | 8 kts | 347° |
| 2026-05-04 16:07 | 59.80146 | 30.30112 | 65 ft | 0 kts | 286° |
| 2026-05-04 16:08 | 59.80146 | 30.30109 | 66 ft | 0 kts | 286° |
| 2026-05-04 16:08 | 59.80271 | 30.29267 | 76 ft | 92 kts | 286° |
| 2026-05-04 16:09 | 59.80816 | 30.25549 | 248 ft | 174 kts | 289° |
| 2026-05-04 16:09 | 59.81496 | 30.20721 | 1372 ft | 189 kts | 280° |
| 2026-05-04 16:10 | 59.82358 | 30.15078 | 2221 ft | 226 kts | 280° |
| 2026-05-04 16:11 | 59.83619 | 30.06636 | 5431 ft | 206 kts | 280° |
| 2026-05-04 16:11 | 59.84021 | 30.03893 | 6308 ft | 207 kts | 280° |
| 2026-05-04 16:12 | 59.82779 | 29.96560 | 8587 ft | 226 kts | 208° |
| 2026-05-04 16:12 | 59.78111 | 29.93851 | 10862 ft | 238 kts | 204° |
| 2026-05-04 16:13 | 59.74815 | 29.92506 | 12299 ft | 259 kts | 180° |
| 2026-05-04 16:13 | 59.71771 | 29.97421 | 13108 ft | 331 kts | 122° |
| 2026-05-04 16:14 | 59.70319 | 30.06874 | 13410 ft | 385 kts | 105° |
| 2026-05-04 16:14 | 59.69544 | 30.17752 | 14208 ft | 410 kts | 91° |
| 2026-05-04 16:15 | 59.69383 | 30.34859 | 15984 ft | 417 kts | 104° |
| 2026-05-04 16:16 | 59.68017 | 30.46069 | 17165 ft | 423 kts | 107° |
| 2026-05-04 16:16 | 59.66165 | 30.63358 | 18752 ft | 433 kts | 105° |
| 2026-05-04 16:17 | 59.64994 | 30.75047 | 19724 ft | 440 kts | 103° |
| 2026-05-04 16:18 | 59.63561 | 30.93195 | 21145 ft | 450 kts | 102° |
| 2026-05-04 16:18 | 59.63088 | 30.99323 | 21599 ft | 453 kts | 102° |
| 2026-05-04 16:19 | 59.61531 | 31.17905 | 22961 ft | 461 kts | 103° |
| 2026-05-04 16:19 | 59.60440 | 31.30458 | 23745 ft | 466 kts | 103° |
| 2026-05-04 16:20 | 59.58768 | 31.49530 | 24826 ft | 473 kts | 103° |
| 2026-05-04 16:20 | 59.57631 | 31.62390 | 25513 ft | 478 kts | 103° |
| 2026-05-04 16:21 | 59.55877 | 31.81891 | 26546 ft | 485 kts | 103° |
| 2026-05-04 16:22 | 59.54671 | 31.95031 | 27206 ft | 489 kts | 103° |
| 2026-05-04 16:22 | 59.51119 | 32.13619 | 28142 ft | 482 kts | 128° |
| 2026-05-04 16:23 | 59.44437 | 32.28150 | 28993 ft | 479 kts | 141° |
| 2026-05-04 16:24 | 59.34905 | 32.46679 | 30175 ft | 483 kts | 141° |
| 2026-05-04 16:25 | 59.30130 | 32.55923 | 30829 ft | 482 kts | 141° |
| 2026-05-04 16:26 | 59.20581 | 32.74228 | 32137 ft | 480 kts | 141° |
| 2026-05-04 16:26 | 59.13442 | 32.87830 | 32697 ft | 476 kts | 141° |
| 2026-05-04 16:28 | 59.01629 | 33.10161 | 32704 ft | 475 kts | 141° |
| 2026-05-04 16:29 | 58.84991 | 33.41221 | 32701 ft | 474 kts | 141° |
| 2026-05-04 16:31 | 58.73060 | 33.63196 | 32708 ft | 474 kts | 140° |
| 2026-05-04 16:32 | 58.58712 | 33.89394 | 32717 ft | 474 kts | 140° |
| 2026-05-04 16:33 | 58.49123 | 34.06714 | 32724 ft | 474 kts | 140° |
| 2026-05-04 16:34 | 58.41916 | 34.19645 | 32723 ft | 474 kts | 140° |
| 2026-05-04 16:35 | 58.27459 | 34.45335 | 32734 ft | 474 kts | 140° |
| 2026-05-04 16:36 | 58.20212 | 34.58098 | 32733 ft | 474 kts | 140° |
| 2026-05-04 16:37 | 58.12715 | 34.70247 | 32739 ft | 472 kts | 143° |
| 2026-05-04 16:38 | 58.02546 | 34.85961 | 32747 ft | 472 kts | 143° |
| 2026-05-04 16:39 | 57.89935 | 35.05762 | 32747 ft | 472 kts | 143° |
| 2026-05-04 16:40 | 57.79805 | 35.21448 | 32755 ft | 472 kts | 143° |
| 2026-05-04 16:41 | 57.68217 | 35.39276 | 32757 ft | 471 kts | 143° |
| 2026-05-04 16:42 | 57.61994 | 35.49650 | 32766 ft | 474 kts | 131° |
| 2026-05-04 16:43 | 57.58559 | 35.60108 | 32766 ft | 475 kts | 112° |
| 2026-05-04 16:43 | 57.55165 | 35.77374 | 32766 ft | 475 kts | 110° |
| 2026-05-04 16:45 | 57.46937 | 36.10667 | 32775 ft | 473 kts | 133° |
| 2026-05-04 16:46 | 57.35174 | 36.28822 | 32773 ft | 471 kts | 143° |
| 2026-05-04 16:47 | 57.24906 | 36.43873 | 32786 ft | 471 kts | 143° |
| 2026-05-04 16:48 | 57.14756 | 36.58622 | 32785 ft | 470 kts | 143° |
| 2026-05-04 16:49 | 57.04815 | 36.72961 | 32795 ft | 470 kts | 143° |
| 2026-05-04 16:50 | 56.99591 | 36.80434 | 30600 ft | 487 kts | 143° |
| 2026-05-04 16:50 | 56.94260 | 36.88068 | 29127 ft | 481 kts | 143° |
| 2026-05-04 16:51 | 56.89043 | 36.95484 | 27874 ft | 469 kts | 143° |
| 2026-05-04 16:51 | 56.86472 | 36.99103 | 27264 ft | 463 kts | 143° |
| 2026-05-04 16:51 | 56.81348 | 37.05793 | 26687 ft | 438 kts | 153° |
| 2026-05-04 16:52 | 56.75979 | 37.10347 | 26067 ft | 418 kts | 157° |
| 2026-05-04 16:52 | 56.73347 | 37.12525 | 25816 ft | 414 kts | 157° |
| 2026-05-04 16:53 | 56.68117 | 37.16840 | 25320 ft | 411 kts | 157° |
| 2026-05-04 16:53 | 56.60352 | 37.23227 | 24826 ft | 406 kts | 157° |
| 2026-05-04 16:54 | 56.57775 | 37.25339 | 24834 ft | 407 kts | 157° |
| 2026-05-04 16:55 | 56.47462 | 37.33779 | 23945 ft | 403 kts | 157° |
| 2026-05-04 16:55 | 56.42391 | 37.37928 | 23177 ft | 397 kts | 157° |
| 2026-05-04 16:56 | 56.37379 | 37.42012 | 22447 ft | 393 kts | 157° |
| 2026-05-04 16:56 | 56.30019 | 37.47987 | 21379 ft | 387 kts | 157° |
| 2026-05-04 16:57 | 56.27574 | 37.49968 | 21028 ft | 385 kts | 157° |
| 2026-05-04 16:57 | 56.22718 | 37.53894 | 20323 ft | 381 kts | 157° |
| 2026-05-04 16:58 | 56.15524 | 37.59677 | 19284 ft | 375 kts | 156° |
| 2026-05-04 16:58 | 56.13146 | 37.61579 | 18939 ft | 373 kts | 156° |
| 2026-05-04 16:59 | 56.08425 | 37.65350 | 18406 ft | 371 kts | 156° |
| 2026-05-04 17:00 | 55.99070 | 37.72806 | 17374 ft | 365 kts | 156° |
| 2026-05-04 17:00 | 55.92369 | 37.79018 | 16852 ft | 361 kts | 143° |
| 2026-05-04 17:01 | 55.88251 | 37.84138 | 16859 ft | 354 kts | 151° |
| 2026-05-04 17:01 | 55.83714 | 37.86511 | 16736 ft | 336 kts | 178° |
| 2026-05-04 17:02 | 55.79053 | 37.86561 | 16520 ft | 334 kts | 181° |
| 2026-05-04 17:02 | 55.74406 | 37.86631 | 16302 ft | 333 kts | 180° |
| 2026-05-04 17:03 | 55.72090 | 37.86672 | 16199 ft | 333 kts | 180° |
| 2026-05-04 17:03 | 55.69774 | 37.86716 | 16085 ft | 333 kts | 180° |
| 2026-05-04 17:03 | 55.65152 | 37.86796 | 15874 ft | 331 kts | 180° |
| 2026-05-04 17:04 | 55.60517 | 37.86891 | 15188 ft | 332 kts | 180° |
| 2026-05-04 17:04 | 55.55934 | 37.87441 | 14553 ft | 329 kts | 166° |
| 2026-05-04 17:05 | 55.51950 | 37.91091 | 13904 ft | 325 kts | 142° |
| 2026-05-04 17:05 | 55.48320 | 37.95899 | 13212 ft | 322 kts | 143° |
| 2026-05-04 17:06 | 55.44754 | 38.00526 | 12519 ft | 319 kts | 143° |
| 2026-05-04 17:06 | 55.42980 | 38.02813 | 11949 ft | 315 kts | 143° |
| 2026-05-04 17:07 | 55.39483 | 38.07320 | 11212 ft | 309 kts | 144° |
| 2026-05-04 17:07 | 55.38315 | 38.08821 | 11009 ft | 308 kts | 144° |
| 2026-05-04 17:07 | 55.36034 | 38.11751 | 10627 ft | 306 kts | 144° |
| 2026-05-04 17:07 | 55.34318 | 38.13956 | 10329 ft | 305 kts | 144° |
| 2026-05-04 17:08 | 55.32614 | 38.16143 | 10052 ft | 303 kts | 144° |
| 2026-05-04 17:08 | 55.29216 | 38.20482 | 9510 ft | 300 kts | 144° |
| 2026-05-04 17:08 | 55.27524 | 38.22647 | 9257 ft | 300 kts | 144° |
| 2026-05-04 17:09 | 55.25840 | 38.24800 | 8978 ft | 299 kts | 144° |
| 2026-05-04 17:09 | 55.24138 | 38.26925 | 8483 ft | 302 kts | 146° |
| 2026-05-04 17:09 | 55.22419 | 38.29005 | 8226 ft | 295 kts | 147° |
| 2026-05-04 17:10 | 55.18895 | 38.31890 | 7850 ft | 269 kts | 176° |
| 2026-05-04 17:10 | 55.13597 | 38.29983 | 7035 ft | 259 kts | 201° |
| 2026-05-04 17:11 | 55.11974 | 38.28717 | 6716 ft | 252 kts | 221° |
| 2026-05-04 17:11 | 55.10900 | 38.26402 | 6426 ft | 244 kts | 249° |
| 2026-05-04 17:11 | 55.11072 | 38.20869 | 5968 ft | 228 kts | 300° |
| 2026-05-04 17:12 | 55.12120 | 38.18840 | 5683 ft | 228 kts | 324° |
| 2026-05-04 17:12 | 55.14994 | 38.16357 | 4967 ft | 233 kts | 332° |
| 2026-05-04 17:13 | 55.19364 | 38.12734 | 4282 ft | 220 kts | 330° |
| 2026-05-04 17:14 | 55.23177 | 38.09561 | 4082 ft | 177 kts | 330° |
| 2026-05-04 17:14 | 55.24205 | 38.08689 | 4006 ft | 151 kts | 324° |
| 2026-05-04 17:14 | 55.25833 | 38.06718 | 3712 ft | 141 kts | 320° |
| 2026-05-04 17:15 | 55.26639 | 38.05744 | 3532 ft | 141 kts | 320° |
| 2026-05-04 17:15 | 55.28257 | 38.03806 | 3174 ft | 141 kts | 320° |
| 2026-05-04 17:16 | 55.29886 | 38.01860 | 2797 ft | 142 kts | 320° |
| 2026-05-04 17:16 | 55.32344 | 37.98924 | 2233 ft | 143 kts | 320° |
| 2026-05-04 17:17 | 55.33165 | 37.97942 | 2043 ft | 143 kts | 320° |
| 2026-05-04 17:17 | 55.35647 | 37.94971 | 1465 ft | 144 kts | 321° |
| 2026-05-04 17:18 | 55.36478 | 37.93975 | 1295 ft | 145 kts | 322° |
| 2026-05-04 17:18 | 55.38139 | 37.91986 | 869 ft | 144 kts | 324° |